Kalamazoo, Michigan
Current Conditions -  °F | °C
As of 11:53 PM on Friday 28 Nov 2014 (Local Time) from KAZO Reporting Station
Overcast Overcast  
Wind Chill: 22°   Ceiling: 6000
Heat Index: 30°   Visibility: 10mi
Dew Point: 21°   Wind: 8mph
Humidity: 69%   Direction: 170°S
Pressure: 29.97"   Gusts: NA
Location:  42.29°N, 85.6°W
Report Text: KAZO 290453Z AUTO 17007KT 10SM BKN060 OVC085 M01/M06 A2997 RMK AO2 SNE00 SLP162 P0000 T10111061 410111061
Loading
Personal Weather Stations






























Interactive Weather Map New forecast layout! Learn more

10-Day Weather Forecast

Advertisements
Track Severe Weather on mobile